Terminal Aerodrome Forecast
Issued by NWS Boston, MA

Home | Current Version | Previous Version | Text Only | Print | Product List | Glossary On
Versions: 1 2 3 4 5 6 7 8 9 10 11 12 13 14 15 16 17 18 19 20 21 22 23 24 25 26 27 28 29 30 31 32 33 34 35 36 37 38 39 40 41 42 43 44 45 46 47 48 49 50
000
FTUS41 KBOX 191120
TAFBDL
TAF
KBDL 191120Z 1912/2018 02010KT P6SM OVC011
     FM191600 03010G19KT P6SM OVC020
     FM191800 03010KT P6SM VCSH OVC025
     FM192100 03010G23KT 5SM -SHRA OVC020
     FM200400 02012G22KT P6SM VCSH OVC025
     FM201100 01013G24KT P6SM VCSH OVC015
     FM201500 01014G26KT P6SM OVC020=

USA.gov is the U.S. government's official web portal to all federal, state and local government web resources and services.